sensor_id;sensor_type;location;lat;lon;timestamp;P1;durP1;ratioP1;P2;durP2;ratioP2
22565;SDS011;11449;51.330;19.378;2022-11-11T08:59:06;68.50;;;20.80;;
22565;SDS011;11449;51.330;19.378;2022-11-11T09:09:44;130.25;;;85.20;;
22565;SDS011;11449;51.330;19.378;2022-11-11T09:15:03;377.35;;;122.47;;
22565;SDS011;11449;51.330;19.378;2022-11-11T09:20:22;368.37;;;118.70;;
22565;SDS011;11449;51.330;19.378;2022-11-11T09:25:41;366.05;;;122.55;;
22565;SDS011;11449;51.330;19.378;2022-11-11T09:31:01;369.93;;;128.63;;
22565;SDS011;11449;51.330;19.378;2022-11-11T09:36:20;372.00;;;121.05;;
22565;SDS011;11449;51.330;19.378;2022-11-11T09:47:15;359.00;;;131.93;;
22565;SDS011;11449;51.330;19.378;2022-11-11T09:52:47;379.15;;;131.60;;
22565;SDS011;11449;51.330;19.378;2022-11-11T09:58:04;376.00;;;129.17;;
22565;SDS011;11449;51.330;19.378;2022-11-11T10:03:24;203.12;;;104.75;;
22565;SDS011;11449;51.330;19.378;2022-11-11T10:08:50;222.67;;;118.82;;
22565;SDS011;11449;51.330;19.378;2022-11-11T10:14:08;24.63;;;9.53;;
22565;SDS011;11449;51.330;19.378;2022-11-11T10:19:28;30.23;;;10.20;;
22565;SDS011;11449;51.330;19.378;2022-11-11T10:24:59;25.10;;;9.83;;
22565;SDS011;11449;51.330;19.378;2022-11-11T10:30:16;29.27;;;8.38;;
22565;SDS011;11449;51.330;19.378;2022-11-11T10:35:33;15.20;;;5.30;;
22565;SDS011;11449;51.330;19.378;2022-11-11T10:40:52;18.02;;;5.05;;
22565;SDS011;11449;51.330;19.378;2022-11-11T10:46:14;11.48;;;4.33;;
22565;SDS011;11449;51.330;19.378;2022-11-11T10:51:35;17.25;;;4.80;;
22565;SDS011;11449;51.330;19.378;2022-11-11T11:02:28;13.90;;;5.80;;
22565;SDS011;11449;51.330;19.378;2022-11-11T11:07:48;23.80;;;5.33;;
22565;SDS011;11449;51.330;19.378;2022-11-11T11:13:12;45.85;;;8.18;;
22565;SDS011;11449;51.330;19.378;2022-11-11T11:18:29;37.25;;;7.12;;
22565;SDS011;11449;51.330;19.378;2022-11-11T11:23:49;43.95;;;7.70;;
22565;SDS011;11449;51.330;19.378;2022-11-11T11:29:08;36.80;;;6.08;;
22565;SDS011;11449;51.330;19.378;2022-11-11T11:40:05;39.20;;;6.10;;
22565;SDS011;11449;51.330;19.378;2022-11-11T11:45:26;45.30;;;6.23;;
22565;SDS011;11449;51.330;19.378;2022-11-11T11:50:50;113.95;;;77.47;;
22565;SDS011;11449;51.330;19.378;2022-11-11T12:07:26;358.77;;;130.20;;
22565;SDS011;11449;51.330;19.378;2022-11-11T12:12:50;14.90;;;5.73;;
22565;SDS011;11449;51.330;19.378;2022-11-11T12:18:30;11.08;;;5.35;;
22565;SDS011;11449;51.330;19.378;2022-11-11T12:29:19;12.15;;;4.70;;
22565;SDS011;11449;51.330;19.378;2022-11-11T12:50:52;51.80;;;15.95;;
22565;SDS011;11449;51.330;19.378;2022-11-11T13:17:52;12.58;;;5.40;;
22565;SDS011;11449;51.330;19.378;2022-11-11T13:23:11;10.03;;;5.42;;
22565;SDS011;11449;51.330;19.378;2022-11-11T13:33:53;15.90;;;5.75;;
22565;SDS011;11449;51.330;19.378;2022-11-11T13:39:23;15.45;;;6.12;;
22565;SDS011;11449;51.330;19.378;2022-11-11T13:44:50;81.00;;;24.47;;
22565;SDS011;11449;51.330;19.378;2022-11-11T13:50:13;9.28;;;4.80;;
22565;SDS011;11449;51.330;19.378;2022-11-11T13:55:35;10.00;;;4.97;;
22565;SDS011;11449;51.330;19.378;2022-11-11T14:00:58;12.88;;;5.65;;
22565;SDS011;11449;51.330;19.378;2022-11-11T14:16:59;36.20;;;7.12;;
22565;SDS011;11449;51.330;19.378;2022-11-11T14:22:28;40.55;;;8.80;;
22565;SDS011;11449;51.330;19.378;2022-11-11T14:27:48;46.15;;;8.80;;
22565;SDS011;11449;51.330;19.378;2022-11-11T14:33:19;40.53;;;8.43;;
22565;SDS011;11449;51.330;19.378;2022-11-11T14:43:56;51.98;;;11.70;;
22565;SDS011;11449;51.330;19.378;2022-11-11T15:00:26;46.40;;;13.48;;
22565;SDS011;11449;51.330;19.378;2022-11-11T15:06:47;54.85;;;10.53;;
22565;SDS011;11449;51.330;19.378;2022-11-11T15:11:29;53.48;;;13.15;;
22565;SDS011;11449;51.330;19.378;2022-11-11T15:33:20;52.98;;;19.42;;
22565;SDS011;11449;51.330;19.378;2022-11-11T15:38:38;60.98;;;23.32;;
22565;SDS011;11449;51.330;19.378;2022-11-11T15:43:57;720.80;;;195.30;;
22565;SDS011;11449;51.330;19.378;2022-11-11T15:49:36;64.75;;;32.45;;
22565;SDS011;11449;51.330;19.378;2022-11-11T15:54:56;25.17;;;15.30;;
22565;SDS011;11449;51.330;19.378;2022-11-11T16:05:45;36.30;;;19.80;;
22565;SDS011;11449;51.330;19.378;2022-11-11T16:11:04;26.12;;;16.23;;
22565;SDS011;11449;51.330;19.378;2022-11-11T16:16:25;25.43;;;14.87;;
22565;SDS011;11449;51.330;19.378;2022-11-11T16:27:03;24.30;;;12.60;;
22565;SDS011;11449;51.330;19.378;2022-11-11T16:37:51;23.15;;;12.73;;
22565;SDS011;11449;51.330;19.378;2022-11-11T16:48:43;34.90;;;17.77;;
22565;SDS011;11449;51.330;19.378;2022-11-11T16:54:48;29.00;;;16.27;;
22565;SDS011;11449;51.330;19.378;2022-11-11T16:59:24;64.27;;;29.60;;
22565;SDS011;11449;51.330;19.378;2022-11-11T17:10:12;39.48;;;20.88;;
22565;SDS011;11449;51.330;19.378;2022-11-11T17:15:32;39.38;;;21.52;;
22565;SDS011;11449;51.330;19.378;2022-11-11T17:20:51;38.93;;;23.50;;
22565;SDS011;11449;51.330;19.378;2022-11-11T17:26:11;35.95;;;20.08;;
22565;SDS011;11449;51.330;19.378;2022-11-11T17:31:30;26.65;;;15.15;;
22565;SDS011;11449;51.330;19.378;2022-11-11T17:36:50;28.53;;;16.30;;
22565;SDS011;11449;51.330;19.378;2022-11-11T17:42:10;31.53;;;16.17;;
22565;SDS011;11449;51.330;19.378;2022-11-11T17:47:30;28.43;;;15.87;;
22565;SDS011;11449;51.330;19.378;2022-11-11T17:52:55;34.85;;;16.97;;
22565;SDS011;11449;51.330;19.378;2022-11-11T17:58:15;33.80;;;17.35;;
22565;SDS011;11449;51.330;19.378;2022-11-11T18:03:35;31.95;;;18.12;;
22565;SDS011;11449;51.330;19.378;2022-11-11T18:08:54;31.83;;;19.20;;
22565;SDS011;11449;51.330;19.378;2022-11-11T18:14:14;36.45;;;20.52;;
22565;SDS011;11449;51.330;19.378;2022-11-11T18:24:53;32.17;;;16.40;;
22565;SDS011;11449;51.330;19.378;2022-11-11T18:30:13;25.43;;;14.50;;
22565;SDS011;11449;51.330;19.378;2022-11-11T18:35:32;27.95;;;14.50;;
22565;SDS011;11449;51.330;19.378;2022-11-11T18:40:52;41.95;;;21.40;;
22565;SDS011;11449;51.330;19.378;2022-11-11T18:46:13;39.88;;;21.48;;
22565;SDS011;11449;51.330;19.378;2022-11-11T18:51:33;43.68;;;22.15;;
22565;SDS011;11449;51.330;19.378;2022-11-11T18:56:56;41.68;;;23.87;;
22565;SDS011;11449;51.330;19.378;2022-11-11T19:02:19;41.15;;;21.57;;
22565;SDS011;11449;51.330;19.378;2022-11-11T19:07:38;45.15;;;22.62;;
22565;SDS011;11449;51.330;19.378;2022-11-11T19:12:58;43.13;;;24.20;;
22565;SDS011;11449;51.330;19.378;2022-11-11T19:18:18;42.40;;;23.22;;
22565;SDS011;11449;51.330;19.378;2022-11-11T19:23:37;40.10;;;21.57;;
22565;SDS011;11449;51.330;19.378;2022-11-11T19:28:57;37.75;;;20.70;;
22565;SDS011;11449;51.330;19.378;2022-11-11T19:34:17;112.90;;;50.58;;
22565;SDS011;11449;51.330;19.378;2022-11-11T19:39:36;47.65;;;23.85;;
22565;SDS011;11449;51.330;19.378;2022-11-11T19:44:56;53.65;;;26.73;;
22565;SDS011;11449;51.330;19.378;2022-11-11T19:50:16;50.63;;;27.45;;
22565;SDS011;11449;51.330;19.378;2022-11-11T19:55:37;39.60;;;21.75;;
22565;SDS011;11449;51.330;19.378;2022-11-11T20:00:57;38.25;;;18.45;;
22565;SDS011;11449;51.330;19.378;2022-11-11T20:06:21;38.70;;;19.02;;
22565;SDS011;11449;51.330;19.378;2022-11-11T20:11:41;34.43;;;16.75;;
22565;SDS011;11449;51.330;19.378;2022-11-11T20:17:00;33.57;;;17.03;;
22565;SDS011;11449;51.330;19.378;2022-11-11T20:22:20;38.63;;;19.15;;
22565;SDS011;11449;51.330;19.378;2022-11-11T20:27:39;32.75;;;19.10;;
22565;SDS011;11449;51.330;19.378;2022-11-11T20:32:58;35.85;;;19.60;;
22565;SDS011;11449;51.330;19.378;2022-11-11T20:38:17;38.02;;;18.45;;
22565;SDS011;11449;51.330;19.378;2022-11-11T20:43:37;33.93;;;17.70;;
22565;SDS011;11449;51.330;19.378;2022-11-11T20:48:57;33.30;;;17.50;;
22565;SDS011;11449;51.330;19.378;2022-11-11T20:54:16;32.38;;;17.98;;
22565;SDS011;11449;51.330;19.378;2022-11-11T20:59:35;26.50;;;15.08;;
22565;SDS011;11449;51.330;19.378;2022-11-11T21:04:54;29.52;;;14.73;;
22565;SDS011;11449;51.330;19.378;2022-11-11T21:10:14;27.62;;;15.53;;
22565;SDS011;11449;51.330;19.378;2022-11-11T21:15:33;25.48;;;15.23;;
22565;SDS011;11449;51.330;19.378;2022-11-11T21:20:52;29.95;;;15.90;;
22565;SDS011;11449;51.330;19.378;2022-11-11T21:26:12;26.65;;;14.93;;
22565;SDS011;11449;51.330;19.378;2022-11-11T21:31:33;29.87;;;16.80;;
22565;SDS011;11449;51.330;19.378;2022-11-11T21:36:53;33.33;;;17.65;;
22565;SDS011;11449;51.330;19.378;2022-11-11T21:42:12;37.80;;;19.37;;
22565;SDS011;11449;51.330;19.378;2022-11-11T21:47:31;43.13;;;20.35;;
22565;SDS011;11449;51.330;19.378;2022-11-11T21:52:50;49.67;;;23.15;;
22565;SDS011;11449;51.330;19.378;2022-11-11T21:58:10;59.65;;;27.58;;
22565;SDS011;11449;51.330;19.378;2022-11-11T22:03:29;62.60;;;29.40;;
22565;SDS011;11449;51.330;19.378;2022-11-11T22:08:50;70.15;;;33.70;;
22565;SDS011;11449;51.330;19.378;2022-11-11T22:14:10;89.60;;;39.03;;
22565;SDS011;11449;51.330;19.378;2022-11-11T22:19:30;77.17;;;35.43;;
22565;SDS011;11449;51.330;19.378;2022-11-11T22:24:49;61.10;;;30.08;;
22565;SDS011;11449;51.330;19.378;2022-11-11T22:30:09;78.75;;;34.75;;
22565;SDS011;11449;51.330;19.378;2022-11-11T22:35:30;66.77;;;32.87;;
22565;SDS011;11449;51.330;19.378;2022-11-11T22:40:49;49.15;;;24.67;;
22565;SDS011;11449;51.330;19.378;2022-11-11T22:46:09;42.80;;;23.32;;
22565;SDS011;11449;51.330;19.378;2022-11-11T22:51:29;71.62;;;33.67;;
22565;SDS011;11449;51.330;19.378;2022-11-11T22:56:48;54.35;;;25.92;;
22565;SDS011;11449;51.330;19.378;2022-11-11T23:02:07;43.90;;;22.65;;
22565;SDS011;11449;51.330;19.378;2022-11-11T23:07:27;43.90;;;22.95;;
22565;SDS011;11449;51.330;19.378;2022-11-11T23:12:46;43.08;;;21.60;;
22565;SDS011;11449;51.330;19.378;2022-11-11T23:18:05;43.30;;;21.30;;
22565;SDS011;11449;51.330;19.378;2022-11-11T23:23:25;42.75;;;21.23;;
22565;SDS011;11449;51.330;19.378;2022-11-11T23:28:44;42.37;;;20.67;;
22565;SDS011;11449;51.330;19.378;2022-11-11T23:34:05;46.90;;;22.62;;
22565;SDS011;11449;51.330;19.378;2022-11-11T23:39:24;52.60;;;23.35;;
22565;SDS011;11449;51.330;19.378;2022-11-11T23:50:04;52.78;;;24.55;;
22565;SDS011;11449;51.330;19.378;2022-11-11T23:55:23;48.25;;;23.92;;
